Time;durP1;ratioP1;P1;durP2;ratioP2;P2;SDS_P1;SDS_P2;PMS_P1;PMS_P2;Temp;Humidity;BMP_temperature;BMP_pressure;BME280_temperature;BME280_humidity;BME280_pressure;Samples;Min_cycle;Max_cycle;Signal;HPM_P1;HPM_P2
2022/08/28 00:01:15;;;;;;;4.68;1.00;;;15.30;99.90;;;;;;6245760;22;20021;-91
2022/08/28 00:03:42;;;;;;;3.05;1.02;;;15.20;99.90;;;;;;6219899;23;20017;-89
2022/08/28 00:07:03;;;;;;;2.17;0.90;;;15.20;99.90;;;;;;6196417;23;20062;-90
2022/08/28 00:10:02;;;;;;;3.67;1.20;;;15.30;99.90;;;;;;6049611;23;20507;-91
2022/08/28 00:12:36;;;;;;;2.95;0.80;;;15.20;99.90;;;;;;6104358;23;20548;-90
2022/08/28 00:15:26;;;;;;;2.10;0.90;;;15.10;99.90;;;;;;6196121;23;20027;-91
2022/08/28 00:17:54;;;;;;;3.22;1.00;;;15.00;99.90;;;;;;6221261;23;20020;-91
2022/08/28 00:20:21;;;;;;;2.97;1.27;;;15.00;99.90;;;;;;6196107;23;20023;-92
2022/08/28 00:22:48;;;;;;;3.72;0.90;;;14.90;99.90;;;;;;6196168;23;20043;-91
2022/08/28 00:25:23;;;;;;;3.15;1.10;;;14.90;99.90;;;;;;6195881;23;20020;-90
2022/08/28 00:31:27;;;;;;;5.55;1.25;;;14.90;99.90;;;;;;6176285;23;20450;-90
2022/08/28 00:33:53;;;;;;;3.47;0.98;;;15.00;99.90;;;;;;6195913;23;20020;-91
2022/08/28 00:36:19;;;;;;;2.97;0.90;;;15.00;99.90;;;;;;6195089;23;20362;-90
2022/08/28 00:39:48;;;;;;;2.50;1.00;;;15.00;99.90;;;;;;6194523;23;20012;-90
2022/08/28 00:44:47;;;;;;;4.07;1.08;;;15.00;99.90;;;;;;6243054;22;20028;-89
2022/08/28 00:56:28;;;;;;;3.03;0.82;;;14.90;99.90;;;;;;6246144;22;20029;-90
2022/08/28 00:59:01;;;;;;;3.08;1.00;;;14.80;99.90;;;;;;6195535;23;20065;-89
2022/08/28 01:01:29;;;;;;;4.20;1.40;;;14.80;99.90;;;;;;6195829;23;20538;-88
2022/08/28 01:47:01;;;;;;;2.75;0.80;;;14.50;99.90;;;;;;6175258;23;20063;-91
2022/08/28 01:50:06;;;;;;;;;;;;;;;;;;;;;
2022/08/28 01:59:22;;;;;;;1.63;0.73;;;14.50;99.90;;;;;;6246553;22;20024;-89
2022/08/28 02:01:51;;;;;;;2.42;0.70;;;14.50;99.90;;;;;;6195034;23;20031;-89
2022/08/28 02:04:16;;;;;;;3.40;1.00;;;14.50;99.90;;;;;;6194614;23;20020;-88
2022/08/28 02:06:42;;;;;;;4.10;0.75;;;14.50;99.90;;;;;;6145896;23;20035;-89
2022/08/28 02:09:08;;;;;;;2.15;0.80;;;14.50;99.90;;;;;;6195324;23;20016;-89
2022/08/28 02:12:19;;;;;;;2.45;0.77;;;14.50;99.90;;;;;;6195097;23;20117;-90
2022/08/28 02:15:06;;;;;;;4.15;0.77;;;14.50;99.90;;;;;;6158669;23;20327;-89
2022/08/28 02:18:05;;;;;;;2.47;0.60;;;14.40;99.90;;;;;;6171468;23;20042;-89
2022/08/28 02:30:23;;;;;;;3.05;0.80;;;14.40;99.90;;;;;;6219718;23;20099;-91
2022/08/28 02:33:28;;;;;;;;;;;;;;;;;;;;;
2022/08/28 02:36:13;;;;;;;2.22;0.63;;;14.40;99.90;;;;;;6240063;23;20020;-91
2022/08/28 02:38:39;;;;;;;2.95;0.70;;;14.40;99.90;;;;;;6193573;23;20035;-89
2022/08/28 02:41:15;;;;;;;2.47;0.70;;;14.40;99.90;;;;;;6194462;23;20016;-90
2022/08/28 02:44:32;;;;;;;2.28;0.70;;;14.40;99.90;;;;;;6194243;23;20522;-90
2022/08/28 02:47:55;;;;;;;2.78;0.60;;;14.50;99.90;;;;;;6099767;23;20556;-89
2022/08/28 02:50:28;;;;;;;3.35;0.68;;;14.40;99.90;;;;;;6123907;23;20088;-88
2022/08/28 02:53:27;;;;;;;2.85;0.63;;;14.50;99.90;;;;;;6195119;23;20086;-89
2022/08/28 02:56:05;;;;;;;2.38;0.57;;;14.50;99.90;;;;;;6194153;23;20021;-88
2022/08/28 02:58:31;;;;;;;2.17;0.60;;;14.50;99.90;;;;;;6194639;23;20020;-89
2022/08/28 03:01:05;;;;;;;2.58;0.70;;;14.50;99.90;;;;;;6194442;23;20516;-92
2022/08/28 03:03:38;;;;;;;3.22;0.70;;;14.60;99.90;;;;;;6194262;23;20026;-88
2022/08/28 03:06:08;;;;;;;2.47;0.50;;;14.60;99.90;;;;;;6169607;23;20103;-88
2022/08/28 03:08:47;;;;;;;2.28;0.70;;;14.60;99.90;;;;;;6170734;23;20393;-90
2022/08/28 03:11:16;;;;;;;2.45;0.60;;;14.60;99.90;;;;;;6171075;23;20055;-90
2022/08/28 03:13:42;;;;;;;4.05;0.63;;;14.60;99.90;;;;;;6194568;23;20131;-89
2022/08/28 03:16:08;;;;;;;1.95;0.60;;;14.60;99.90;;;;;;6194033;23;20465;-88
2022/08/28 03:18:36;;;;;;;1.70;0.55;;;14.70;99.90;;;;;;6194386;23;20016;-89
2022/08/28 03:21:12;;;;;;;2.95;0.70;;;14.70;99.90;;;;;;6169310;23;20051;-88
2022/08/28 03:23:49;;;;;;;2.13;0.50;;;14.70;99.90;;;;;;6194554;23;20020;-88
2022/08/28 03:26:18;;;;;;;4.18;0.57;;;14.70;99.90;;;;;;6164039;23;20025;-89
2022/08/28 03:28:49;;;;;;;3.10;0.93;;;14.70;99.90;;;;;;6164326;23;20442;-88
2022/08/28 03:31:19;;;;;;;4.57;0.73;;;14.80;99.90;;;;;;6164428;23;20028;-89
2022/08/28 03:33:49;;;;;;;2.38;0.65;;;14.80;99.90;;;;;;6164610;23;20052;-89
2022/08/28 03:36:20;;;;;;;1.85;0.47;;;14.80;99.90;;;;;;6164617;23;20024;-88
2022/08/28 03:39:06;;;;;;;2.03;0.43;;;14.80;99.90;;;;;;6164584;23;20476;-89
2022/08/28 03:41:33;;;;;;;2.70;0.50;;;14.80;99.90;;;;;;6142005;23;20103;-88
2022/08/28 03:44:00;;;;;;;3.45;0.63;;;14.80;99.90;;;;;;6166368;23;20248;-88
2022/08/28 03:46:34;;;;;;;2.53;0.70;;;14.80;99.90;;;;;;6166261;23;20056;-90
2022/08/28 03:49:18;;;;;;;2.15;0.50;;;14.80;99.90;;;;;;6141924;23;20032;-88
2022/08/28 03:51:49;;;;;;;2.45;0.57;;;14.80;99.90;;;;;;6143005;23;20024;-88
2022/08/28 03:54:35;;;;;;;4.35;0.68;;;14.80;99.90;;;;;;6142458;23;20447;-90
2022/08/28 03:57:00;;;;;;;2.65;0.88;;;14.70;99.90;;;;;;6166187;23;20381;-88
2022/08/28 03:59:34;;;;;;;2.55;0.70;;;14.70;99.90;;;;;;6141662;23;20024;-90
2022/08/28 04:02:03;;;;;;;1.77;0.57;;;14.70;99.90;;;;;;6143886;23;20023;-91
2022/08/28 04:04:31;;;;;;;1.83;0.50;;;14.70;99.90;;;;;;6190971;23;20047;-88
2022/08/28 04:06:57;;;;;;;2.08;0.50;;;14.70;99.90;;;;;;6165817;23;20056;-89
2022/08/28 04:09:23;;;;;;;1.40;0.50;;;14.70;99.90;;;;;;6165968;23;20443;-88
2022/08/28 04:11:53;;;;;;;2.30;0.50;;;14.70;99.90;;;;;;6166496;23;20028;-88
2022/08/28 04:14:18;;;;;;;;;;;14.60;99.90;;;;;;6166576;23;20178;-88
2022/08/28 04:16:44;;;;;;;3.63;0.73;;;14.60;99.90;;;;;;6165578;23;20409;-87
2022/08/28 04:19:10;;;;;;;1.40;0.53;;;14.60;99.90;;;;;;6190950;23;20021;-88
2022/08/28 04:21:35;;;;;;;3.25;0.60;;;14.60;99.90;;;;;;6166350;23;20070;-90
2022/08/28 04:24:01;;;;;;;3.08;0.60;;;14.60;99.90;;;;;;6165870;23;20021;-89
2022/08/28 04:26:28;;;;;;;2.38;0.60;;;14.60;99.90;;;;;;6173807;23;20027;-89
2022/08/28 04:28:55;;;;;;;2.15;0.55;;;14.60;99.90;;;;;;6166016;23;20048;-89
2022/08/28 04:31:23;;;;;;;;;;;14.60;99.90;;;;;;6166238;23;20048;-89
2022/08/28 04:33:49;;;;;;;2.47;0.50;;;14.60;99.90;;;;;;6166299;23;19916;-90
2022/08/28 04:36:19;;;;;;;2.53;0.80;;;14.60;99.90;;;;;;6141115;23;20024;-89
2022/08/28 04:38:55;;;;;;;2.42;0.50;;;14.60;99.90;;;;;;6165880;23;20017;-90
2022/08/28 04:41:25;;;;;;;1.35;0.40;;;14.60;99.90;;;;;;6165253;23;20032;-90
2022/08/28 04:43:51;;;;;;;;;;;14.60;99.90;;;;;;6166453;23;20021;-88
2022/08/28 04:46:25;;;;;;;1.65;0.50;;;14.60;99.90;;;;;;6190531;23;19916;-89
2022/08/28 04:48:58;;;;;;;2.45;0.60;;;14.60;99.90;;;;;;6143512;23;20024;-89
2022/08/28 04:51:26;;;;;;;4.00;0.50;;;14.70;99.90;;;;;;6190468;23;20102;-89
2022/08/28 04:53:55;;;;;;;3.08;0.60;;;14.70;99.90;;;;;;6165616;23;20099;-89
2022/08/28 04:56:23;;;;;;;2.22;0.70;;;14.70;99.90;;;;;;6165053;23;20024;-90
2022/08/28 04:58:49;;;;;;;3.20;0.68;;;14.80;99.90;;;;;;6165104;23;20095;-88
2022/08/28 05:01:22;;;;;;;2.25;0.57;;;14.80;99.90;;;;;;6165695;23;20051;-89
2022/08/28 05:04:01;;;;;;;2.20;0.70;;;14.90;99.90;;;;;;6167242;23;20025;-91
2022/08/28 05:06:28;;;;;;;3.83;0.80;;;14.90;99.90;;;;;;6165182;23;20449;-89
2022/08/28 05:08:56;;;;;;;2.00;0.60;;;14.90;99.90;;;;;;6165496;23;20060;-89
2022/08/28 05:11:23;;;;;;;2.45;0.50;;;14.90;99.90;;;;;;6165564;23;20085;-91
2022/08/28 05:14:00;;;;;;;;;;;;;;;;;;;;;
2022/08/28 05:16:57;;;;;;;3.92;0.50;;;14.90;99.90;;;;;;6189643;23;20016;-91
2022/08/28 05:19:25;;;;;;;2.55;0.65;;;15.00;99.90;;;;;;6163801;23;20021;-90
2022/08/28 05:21:51;;;;;;;1.58;0.60;;;15.00;99.90;;;;;;6165205;23;20027;-89
2022/08/28 05:24:17;;;;;;;3.88;0.55;;;15.00;99.90;;;;;;6140500;23;20032;-89
2022/08/28 05:26:43;;;;;;;1.92;0.50;;;15.10;99.90;;;;;;6180757;23;20026;-89
2022/08/28 05:29:12;;;;;;;1.85;0.43;;;15.10;99.90;;;;;;6220059;23;20358;-88
2022/08/28 05:31:50;;;;;;;2.33;0.60;;;15.10;99.90;;;;;;6220107;23;20024;-91
2022/08/28 05:34:43;;;;;;;1.50;0.60;;;15.10;99.90;;;;;;6196265;23;20488;-89
2022/08/28 05:37:17;;;;;;;1.05;0.32;;;15.20;99.90;;;;;;6196451;23;20024;-89
2022/08/28 05:39:43;;;;;;;2.13;0.60;;;15.10;99.90;;;;;;6195598;23;20026;-89
2022/08/28 05:42:12;;;;;;;2.42;0.47;;;15.20;99.90;;;;;;6245535;23;20047;-90
2022/08/28 05:45:09;;;;;;;3.17;0.40;;;15.20;99.90;;;;;;6219975;23;20027;-88
2022/08/28 05:47:35;;;;;;;2.67;0.90;;;15.20;99.90;;;;;;6241081;23;20390;-88
2022/08/28 05:50:07;;;;;;;2.47;0.65;;;15.20;99.90;;;;;;6220779;23;20030;-90
2022/08/28 05:52:36;;;;;;;1.90;0.47;;;15.30;99.90;;;;;;6219608;23;20051;-88
2022/08/28 05:55:01;;;;;;;4.25;1.05;;;15.30;99.90;;;;;;6220103;23;20031;-89
2022/08/28 05:57:46;;;;;;;1.45;0.40;;;15.40;99.90;;;;;;6220375;23;20020;-89
2022/08/28 06:00:12;;;;;;;3.42;0.60;;;15.50;99.90;;;;;;6169538;23;20027;-90
2022/08/28 06:02:40;;;;;;;0.93;0.30;;;15.60;99.90;;;;;;6217161;23;20472;-89
2022/08/28 06:05:19;;;;;;;1.08;0.28;;;15.70;99.90;;;;;;6219861;23;20095;-90
2022/08/28 06:07:45;;;;;;;1.73;0.38;;;15.80;99.90;;;;;;6219641;23;20020;-89
2022/08/28 06:10:17;;;;;;;2.20;0.50;;;16.00;99.90;;;;;;6219546;23;20031;-90
2022/08/28 06:12:42;;;;;;;2.30;0.40;;;16.20;99.90;;;;;;6219099;23;20052;-91
2022/08/28 06:15:08;;;;;;;3.38;0.60;;;16.30;99.90;;;;;;6219181;23;20027;-89
2022/08/28 06:17:34;;;;;;;1.73;0.40;;;16.40;99.90;;;;;;6195192;23;20027;-87
2022/08/28 06:20:41;;;;;;;2.15;0.40;;;16.50;99.90;;;;;;6219312;23;20327;-88
2022/08/28 06:23:15;;;;;;;2.70;0.40;;;16.70;99.90;;;;;;6219880;23;20446;-89
2022/08/28 06:25:47;;;;;;;3.88;0.60;;;16.80;99.90;;;;;;6220193;23;20529;-89
2022/08/28 06:28:38;;;;;;;1.52;0.45;;;17.10;99.90;;;;;;6219814;23;20016;-89
2022/08/28 06:31:04;;;;;;;1.75;0.40;;;17.40;99.90;;;;;;6219373;23;20066;-88
2022/08/28 06:33:31;;;;;;;2.25;0.40;;;18.10;99.90;;;;;;6219731;23;20437;-88
2022/08/28 06:36:02;;;;;;;1.65;0.32;;;18.50;99.90;;;;;;6219670;23;20023;-89
2022/08/28 06:38:28;;;;;;;3.08;0.47;;;18.90;99.90;;;;;;6219251;23;20035;-88
2022/08/28 06:41:17;;;;;;;;;;;19.40;99.90;;;;;;6219866;23;20027;-89
2022/08/28 06:44:00;;;;;;;1.33;0.40;;;20.00;99.90;;;;;;6195335;23;20018;-89
2022/08/28 06:46:29;;;;;;;1.63;0.40;;;20.00;99.50;;;;;;6194528;23;20392;-88
2022/08/28 06:48:55;;;;;;;1.00;0.40;;;19.80;99.90;;;;;;6244997;23;20020;-89
2022/08/28 06:51:20;;;;;;;3.53;0.50;;;19.50;99.90;;;;;;6244535;23;20035;-89
2022/08/28 06:53:46;;;;;;;2.38;0.50;;;19.20;99.90;;;;;;6194378;23;20027;-90
2022/08/28 06:56:17;;;;;;;2.28;0.50;;;19.00;99.90;;;;;;6219426;23;20095;-90
2022/08/28 06:58:44;;;;;;;3.00;0.40;;;18.80;99.90;;;;;;6219634;23;20058;-89
2022/08/28 07:01:23;;;;;;;2.47;0.50;;;18.70;99.90;;;;;;6219327;23;20441;-89
2022/08/28 07:04:16;;;;;;;3.03;0.50;;;18.60;99.90;;;;;;6219166;23;20020;-90
2022/08/28 07:12:36;;;;;;;1.35;0.30;;;18.10;99.90;;;;;;6276144;22;20382;-89
2022/08/28 07:15:03;;;;;;;1.88;0.40;;;18.00;99.90;;;;;;6277299;22;20441;-89
2022/08/28 07:17:30;;;;;;;3.25;0.70;;;18.00;99.90;;;;;;6251807;22;20019;-89
2022/08/28 07:20:00;;;;;;;;;;;18.10;99.90;;;;;;6252644;22;20058;-90
2022/08/28 07:22:28;;;;;;;3.42;0.60;;;18.10;99.90;;;;;;6252136;22;20285;-90
2022/08/28 07:25:03;;;;;;;;;;;18.00;99.90;;;;;;6231036;22;20030;-90
2022/08/28 07:27:30;;;;;;;1.92;0.50;;;18.00;99.90;;;;;;6252000;22;20245;-87
2022/08/28 07:29:57;;;;;;;1.38;0.50;;;17.90;99.90;;;;;;6251705;22;20109;-89
2022/08/28 07:32:23;;;;;;;1.50;0.45;;;17.70;99.90;;;;;;6251679;22;20059;-89
2022/08/28 07:34:55;;;;;;;;;;;17.70;99.90;;;;;;6252108;22;20016;-91
2022/08/28 07:37:22;;;;;;;2.58;0.70;;;17.70;99.90;;;;;;6251883;22;20313;-89
2022/08/28 07:39:56;;;;;;;1.63;0.50;;;17.70;99.90;;;;;;6253487;22;20419;-90
2022/08/28 07:45:18;;;;;;;2.25;0.73;;;17.90;99.90;;;;;;6276951;22;20449;-90
2022/08/28 07:47:43;;;;;;;2.13;0.47;;;17.90;99.50;;;;;;6277223;22;20059;-88
2022/08/28 07:50:09;;;;;;;2.97;0.63;;;18.00;99.10;;;;;;6226589;22;20023;-86
2022/08/28 07:52:36;;;;;;;3.42;0.60;;;18.00;99.00;;;;;;6225621;22;20110;-88
2022/08/28 07:55:03;;;;;;;;;;;18.10;99.10;;;;;;6277433;22;20054;-88
2022/08/28 07:57:30;;;;;;;1.83;0.55;;;18.20;98.50;;;;;;6251273;22;19919;-90
2022/08/28 07:59:59;;;;;;;3.63;0.50;;;18.30;98.70;;;;;;6251934;22;20030;-90
2022/08/28 08:02:30;;;;;;;1.90;0.52;;;18.30;98.50;;;;;;6226382;22;20016;-88
2022/08/28 08:05:07;;;;;;;3.38;1.05;;;18.40;98.40;;;;;;6201558;22;20031;-88
2022/08/28 08:07:38;;;;;;;2.97;0.98;;;18.50;98.60;;;;;;6252411;22;20016;-89
2022/08/28 08:10:13;;;;;;;2.60;0.40;;;18.50;98.50;;;;;;6276747;22;20020;-87
2022/08/28 08:12:54;;;;;;;2.33;0.50;;;18.50;98.60;;;;;;6228159;22;20027;-88
2022/08/28 08:15:20;;;;;;;2.92;0.52;;;18.50;98.50;;;;;;6228431;22;20460;-91
2022/08/28 08:17:58;;;;;;;3.35;0.60;;;18.60;98.40;;;;;;6251209;22;20024;-89
2022/08/28 08:20:26;;;;;;;2.22;0.45;;;18.60;98.50;;;;;;6251367;22;20016;-88
2022/08/28 08:22:52;;;;;;;2.78;0.40;;;18.60;98.50;;;;;;6226106;22;20182;-88
2022/08/28 08:25:21;;;;;;;2.03;0.63;;;18.70;98.50;;;;;;6225722;22;20023;-90
2022/08/28 08:27:47;;;;;;;2.58;0.52;;;18.80;98.40;;;;;;6251825;22;20054;-88
2022/08/28 08:30:15;;;;;;;2.05;0.60;;;18.90;98.00;;;;;;6251479;22;20045;-89
2022/08/28 08:33:07;;;;;;;;;;;;;;;;;;;;;
2022/08/28 08:35:51;;;;;;;1.38;0.43;;;18.80;98.00;;;;;;6276361;22;20472;-91
2022/08/28 08:51:34;;;;;;;2.00;0.68;;;18.50;98.30;;;;;;6242290;22;20024;-89
2022/08/28 08:54:17;;;;;;;2.10;0.70;;;18.30;98.30;;;;;;6165832;23;20074;-90
2022/08/28 08:56:47;;;;;;;3.55;0.82;;;18.30;98.50;;;;;;6141565;23;20018;-89
2022/08/28 08:59:38;;;;;;;0.95;0.50;;;18.20;98.70;;;;;;6165259;23;20118;-91
2022/08/28 09:02:33;;;;;;;1.83;0.50;;;18.30;98.60;;;;;;6190203;23;20442;-91
2022/08/28 09:05:10;;;;;;;2.40;0.60;;;18.50;98.40;;;;;;6165863;23;20043;-90
2022/08/28 09:08:28;;;;;;;1.70;0.52;;;18.50;98.30;;;;;;6189691;23;20016;-92
2022/08/28 09:49:45;;;;;;;2.42;0.63;;;19.00;96.60;;;;;;6222232;22;20027;-91
2022/08/28 09:52:19;;;;;;;1.17;0.43;;;19.10;96.50;;;;;;6225193;22;20023;-92
2022/08/28 09:54:45;;;;;;;2.63;0.60;;;19.10;96.20;;;;;;6225446;22;20457;-90
2022/08/28 09:57:14;;;;;;;0.95;0.50;;;19.10;95.80;;;;;;6200691;22;20055;-91
2022/08/28 09:59:41;;;;;;;3.25;0.80;;;19.20;95.60;;;;;;6200358;22;20020;-90
2022/08/28 10:02:37;;;;;;;2.65;0.60;;;19.30;95.80;;;;;;6225502;22;20024;-91
2022/08/28 10:05:15;;;;;;;1.83;0.60;;;19.20;95.60;;;;;;6225711;22;20020;-91
2022/08/28 10:07:45;;;;;;;2.20;0.68;;;19.10;95.60;;;;;;6225377;22;20023;-91
2022/08/28 10:10:20;;;;;;;1.88;0.50;;;19.00;95.80;;;;;;6224469;22;20051;-90
2022/08/28 10:13:39;;;;;;;3.38;0.63;;;19.00;96.00;;;;;;6249675;22;20085;-91
2022/08/28 10:16:45;;;;;;;2.70;0.60;;;19.10;95.90;;;;;;6211062;22;20114;-92
2022/08/28 10:20:04;;;;;;;2.45;0.70;;;19.20;95.70;;;;;;6224946;22;20028;-89
2022/08/28 10:41:11;;;;;;;1.88;0.57;;;19.60;94.10;;;;;;6276227;22;20041;-88
2022/08/28 10:43:50;;;;;;;2.75;0.50;;;19.70;94.00;;;;;;6223095;22;20026;-90
2022/08/28 10:46:38;;;;;;;1.52;0.52;;;19.80;93.70;;;;;;6223300;22;20102;-86
2022/08/28 10:49:44;;;;;;;4.18;0.60;;;19.80;93.40;;;;;;6224361;22;20020;-91
2022/08/28 10:52:46;;;;;;;2.10;0.50;;;19.70;93.50;;;;;;6224804;22;20065;-88
2022/08/28 10:55:42;;;;;;;3.65;0.70;;;19.60;93.60;;;;;;6172320;22;20020;-87
2022/08/28 10:58:12;;;;;;;2.17;0.60;;;19.70;93.70;;;;;;6245462;22;20452;-87
2022/08/28 11:00:41;;;;;;;3.50;0.60;;;19.80;93.60;;;;;;6223837;22;20349;-87
2022/08/28 11:03:11;;;;;;;1.92;0.55;;;19.90;93.40;;;;;;6224346;22;20114;-87
2022/08/28 11:05:41;;;;;;;2.17;0.57;;;20.00;93.60;;;;;;6249328;22;20015;-87
2022/08/28 11:08:23;;;;;;;3.25;0.80;;;20.10;93.40;;;;;;6249302;22;20016;-88
2022/08/28 11:10:52;;;;;;;2.10;0.90;;;20.00;93.50;;;;;;6224189;22;20030;-87
2022/08/28 11:18:42;;;;;;;1.67;0.60;;;20.20;93.50;;;;;;6246054;23;20025;-91
2022/08/28 11:21:25;;;;;;;3.95;0.80;;;20.30;93.20;;;;;;6244710;23;20113;-92
2022/08/28 11:23:58;;;;;;;2.45;0.60;;;20.30;93.20;;;;;;6244517;23;20020;-87
2022/08/28 11:26:33;;;;;;;1.88;0.55;;;20.40;92.90;;;;;;6219124;23;20059;-87
2022/08/28 11:28:59;;;;;;;2.05;0.73;;;20.20;92.60;;;;;;6219026;23;20016;-88
2022/08/28 11:31:27;;;;;;;;;;;20.20;92.70;;;;;;6219432;23;20020;-88
2022/08/28 11:33:58;;;;;;;2.33;0.45;;;20.20;92.00;;;;;;6244209;23;20404;-89
2022/08/28 11:36:28;;;;;;;1.83;0.45;;;20.40;92.40;;;;;;6219018;23;20024;-88
2022/08/28 11:38:56;;;;;;;2.22;0.65;;;20.60;91.70;;;;;;6219014;23;20024;-87
2022/08/28 11:41:37;;;;;;;2.35;0.65;;;20.70;91.70;;;;;;6243978;23;20020;-88
2022/08/28 11:44:09;;;;;;;3.72;0.73;;;20.70;91.50;;;;;;6218908;23;20031;-87
2022/08/28 11:46:37;;;;;;;2.38;0.50;;;20.70;91.50;;;;;;6218979;23;20027;-89
2022/08/28 11:49:22;;;;;;;1.42;0.60;;;20.80;91.30;;;;;;6218879;23;20024;-88
2022/08/28 11:52:18;;;;;;;2.85;0.70;;;20.90;91.00;;;;;;6219053;23;20020;-87
2022/08/28 11:55:00;;;;;;;2.10;0.60;;;21.10;90.60;;;;;;6218727;23;20024;-89
2022/08/28 11:58:17;;;;;;;2.03;0.57;;;21.10;90.20;;;;;;6220412;23;20472;-86
2022/08/28 12:01:04;;;;;;;1.63;0.50;;;21.20;88.20;;;;;;6071828;23;20101;-95
2022/08/28 12:03:43;;;;;;;3.60;0.77;;;21.00;87.70;;;;;;6221057;23;20102;-88
2022/08/28 12:06:47;;;;;;;2.38;0.63;;;20.90;88.60;;;;;;6219996;23;20102;-91
2022/08/28 12:09:39;;;;;;;1.70;0.45;;;20.80;88.30;;;;;;6220458;23;20024;-90
2022/08/28 12:12:20;;;;;;;1.98;0.50;;;20.80;89.70;;;;;;6200736;23;20024;-90
2022/08/28 12:14:46;;;;;;;3.60;0.90;;;20.80;89.90;;;;;;6245894;23;20096;-87
2022/08/28 12:17:21;;;;;;;1.77;0.70;;;20.80;90.00;;;;;;6224174;22;20056;-92
2022/08/28 12:20:09;;;;;;;3.38;0.68;;;20.80;90.20;;;;;;6225519;22;20055;-89
2022/08/28 12:22:52;;;;;;;2.30;0.60;;;20.70;90.40;;;;;;6224967;22;20023;-87
2022/08/28 12:25:39;;;;;;;3.28;0.70;;;20.80;90.80;;;;;;6224884;22;20020;-87
2022/08/28 12:28:53;;;;;;;1.95;0.52;;;21.00;91.00;;;;;;6225910;22;20024;-86
2022/08/28 12:34:23;;;;;;;1.77;0.60;;;21.30;90.90;;;;;;6276426;22;20059;-87
2022/08/28 12:37:01;;;;;;;3.58;0.50;;;21.20;90.80;;;;;;6225452;22;20023;-88
2022/08/28 12:39:29;;;;;;;2.20;0.47;;;21.20;91.00;;;;;;6249987;22;20480;-88
2022/08/28 12:41:57;;;;;;;2.13;0.45;;;21.10;91.00;;;;;;6250336;22;20074;-87
2022/08/28 12:44:26;;;;;;;2.22;0.50;;;21.10;90.90;;;;;;6250505;22;20153;-87
2022/08/28 12:46:53;;;;;;;1.50;0.50;;;21.00;90.90;;;;;;6250148;22;20012;-88
2022/08/28 12:49:36;;;;;;;9.43;1.55;;;21.00;90.80;;;;;;6250169;22;20023;-86
2022/08/28 12:52:19;;;;;;;2.60;0.57;;;21.10;91.00;;;;;;6225588;22;20024;-86
2022/08/28 12:54:47;;;;;;;1.92;0.60;;;21.10;91.10;;;;;;6224929;22;20023;-86
2022/08/28 12:57:16;;;;;;;1.83;0.52;;;21.10;91.20;;;;;;6225117;22;20030;-88
2022/08/28 12:59:49;;;;;;;3.25;0.60;;;21.00;91.20;;;;;;6225197;22;20099;-89
2022/08/28 13:02:21;;;;;;;1.80;0.47;;;20.90;91.20;;;;;;6248629;22;20024;-89
2022/08/28 13:04:58;;;;;;;2.35;0.57;;;20.80;91.30;;;;;;6222777;22;20015;-91
2022/08/28 13:07:29;;;;;;;;;;;20.70;91.40;;;;;;6251104;22;20020;-86
2022/08/28 13:10:00;;;;;;;1.52;0.68;;;20.60;91.40;;;;;;6248970;22;20008;-87
2022/08/28 13:12:28;;;;;;;1.83;0.43;;;20.50;91.50;;;;;;6224472;22;20098;-89
2022/08/28 13:14:55;;;;;;;2.50;0.65;;;20.40;91.70;;;;;;6225155;22;20020;-88
2022/08/28 13:17:49;;;;;;;4.32;0.60;;;20.30;91.80;;;;;;6224854;22;20027;-88
2022/08/28 13:20:33;;;;;;;3.17;0.50;;;20.20;92.10;;;;;;6244793;22;20020;-87
2022/08/28 13:23:02;;;;;;;1.70;0.45;;;20.10;92.30;;;;;;6250453;22;20042;-88
2022/08/28 13:25:33;;;;;;;1.52;0.47;;;20.20;92.50;;;;;;6225158;22;20065;-89
2022/08/28 13:28:16;;;;;;;4.13;1.20;;;20.20;92.50;;;;;;6225117;22;20026;-89
2022/08/28 13:30:42;;;;;;;1.23;0.40;;;20.20;92.60;;;;;;6250503;22;20035;-89
2022/08/28 13:33:22;;;;;;;2.10;0.63;;;20.20;92.70;;;;;;6224769;22;20028;-88
2022/08/28 13:35:49;;;;;;;1.67;0.43;;;20.10;92.70;;;;;;6224959;22;20129;-89
2022/08/28 13:38:17;;;;;;;2.47;0.50;;;20.10;92.90;;;;;;6224892;22;20015;-86
2022/08/28 13:40:57;;;;;;;1.05;0.30;;;20.00;93.10;;;;;;6223658;22;20019;-88
2022/08/28 13:43:25;;;;;;;1.80;0.40;;;19.90;93.10;;;;;;6224905;22;20023;-86
2022/08/28 13:45:51;;;;;;;1.15;0.50;;;19.80;93.30;;;;;;6224966;22;20020;-87
2022/08/28 13:48:23;;;;;;;3.17;0.60;;;19.70;93.50;;;;;;6224746;22;20023;-89
2022/08/28 13:50:55;;;;;;;0.77;0.30;;;19.60;93.70;;;;;;6225141;22;20019;-88
2022/08/28 13:53:20;;;;;;;4.00;0.68;;;19.60;93.80;;;;;;6249655;22;20023;-88
2022/08/28 13:55:48;;;;;;;2.60;0.50;;;19.60;93.90;;;;;;6224902;22;20019;-89
2022/08/28 13:58:18;;;;;;;2.50;0.68;;;19.60;94.10;;;;;;6224651;22;20051;-90
2022/08/28 14:00:46;;;;;;;2.17;0.30;;;19.60;94.00;;;;;;6225179;22;20024;-91
2022/08/28 14:05:57;;;;;;;1.52;0.40;;;19.50;94.00;;;;;;6275712;22;20077;-90
2022/08/28 14:08:22;;;;;;;0.60;0.40;;;19.50;94.00;;;;;;6199639;22;20016;-87
2022/08/28 14:10:48;;;;;;;1.52;0.43;;;19.60;93.90;;;;;;6224909;22;20020;-91
2022/08/28 14:13:15;;;;;;;2.38;0.63;;;19.70;93.70;;;;;;6224665;22;20034;-88
2022/08/28 14:15:40;;;;;;;0.77;0.30;;;19.70;93.60;;;;;;6250007;22;20468;-88
2022/08/28 14:18:06;;;;;;;1.75;0.40;;;19.60;93.50;;;;;;6224845;22;20020;-90
2022/08/28 14:20:36;;;;;;;1.58;0.40;;;19.60;93.50;;;;;;6224535;22;20015;-89
2022/08/28 14:23:02;;;;;;;0.85;0.40;;;19.60;93.50;;;;;;6224520;22;20082;-91
2022/08/28 14:25:28;;;;;;;1.15;0.40;;;19.50;93.50;;;;;;6199814;22;20016;-91
2022/08/28 14:27:54;;;;;;;1.70;0.30;;;19.50;93.30;;;;;;6223876;22;20158;-89
2022/08/28 14:30:21;;;;;;;2.08;0.57;;;19.50;93.40;;;;;;6225181;22;20165;-91
2022/08/28 14:32:47;;;;;;;1.05;0.40;;;19.50;93.40;;;;;;6199671;22;20306;-89
2022/08/28 14:35:13;;;;;;;1.95;0.57;;;19.50;93.50;;;;;;6224567;22;20019;-90
2022/08/28 14:37:40;;;;;;;1.83;0.55;;;19.50;93.60;;;;;;6249726;22;20015;-91
2022/08/28 14:40:07;;;;;;;2.10;0.40;;;19.50;93.60;;;;;;6224944;22;20384;-91
2022/08/28 14:42:33;;;;;;;1.95;0.47;;;19.40;93.50;;;;;;6224476;22;20112;-89
2022/08/28 14:45:15;;;;;;;1.50;0.40;;;19.40;93.60;;;;;;6224562;22;20094;-91
2022/08/28 14:47:51;;;;;;;;;;;;;;;;;;;;;
2022/08/28 14:50:25;;;;;;;1.73;0.50;;;19.40;93.70;;;;;;6249221;22;20019;-89
2022/08/28 14:52:51;;;;;;;1.40;0.50;;;19.40;93.70;;;;;;6198964;22;20023;-89
2022/08/28 14:55:16;;;;;;;2.80;0.50;;;19.40;93.70;;;;;;6224509;22;20061;-89
2022/08/28 14:57:43;;;;;;;1.67;0.50;;;19.40;93.70;;;;;;6224344;22;20054;-87
2022/08/28 15:00:09;;;;;;;1.63;0.57;;;19.30;93.80;;;;;;6224634;22;20051;-90
2022/08/28 15:02:51;;;;;;;3.55;0.75;;;19.30;93.90;;;;;;6249839;22;20149;-91
2022/08/28 15:05:17;;;;;;;2.40;0.68;;;19.30;94.00;;;;;;6249432;22;20016;-92
2022/08/28 15:36:24;;;;;;;1.65;0.40;;;19.20;94.80;;;;;;6250894;22;20023;-91
2022/08/28 16:15:20;;;;;;;3.03;0.60;;;18.90;95.20;;;;;;6308690;22;20023;-90
2022/08/28 16:17:56;;;;;;;0.68;0.30;;;18.80;95.30;;;;;;6256255;22;20106;-88
2022/08/28 16:36:49;;;;;;;;;;;;;;;;;;;;;
2022/08/28 17:55:51;;;;;;;2.28;0.70;;;18.10;93.80;;;;;;6307110;22;20023;-91
2022/08/28 17:58:17;;;;;;;2.63;0.73;;;18.10;93.80;;;;;;6255158;22;20030;-88
2022/08/28 18:01:34;;;;;;;;;;;;;;;;;;;;;
2022/08/28 18:04:00;;;;;;;2.13;0.60;;;18.10;94.10;;;;;;6280249;22;20019;-87
2022/08/28 18:06:25;;;;;;;2.35;0.73;;;18.10;94.30;;;;;;6254923;22;20073;-91
2022/08/28 18:08:58;;;;;;;2.60;0.63;;;18.10;94.50;;;;;;6257021;22;20095;-95
2022/08/28 18:11:35;;;;;;;1.73;0.60;;;18.10;94.60;;;;;;6286500;22;20027;-91
2022/08/28 18:14:44;;;;;;;2.33;0.70;;;18.10;94.80;;;;;;6256321;22;20019;-91
2022/08/28 18:17:15;;;;;;;3.17;0.88;;;18.10;95.00;;;;;;6239471;22;20156;-90
2022/08/28 18:19:58;;;;;;;2.40;0.50;;;18.10;95.00;;;;;;6255644;22;20019;-92
2022/08/28 18:30:05;;;;;;;4.82;1.23;;;18.00;95.70;;;;;;6311568;22;20016;-91
2022/08/28 18:32:39;;;;;;;;;;;18.00;95.40;;;;;;6281760;22;20078;-90
2022/08/28 18:35:33;;;;;;;2.95;0.93;;;18.00;95.60;;;;;;6228855;22;19989;-89
2022/08/28 18:37:59;;;;;;;4.38;1.13;;;17.90;95.40;;;;;;6234667;22;20070;-88
2022/08/28 18:40:28;;;;;;;2.40;0.82;;;17.90;95.40;;;;;;6255952;22;20046;-93
2022/08/28 18:42:53;;;;;;;3.97;1.15;;;17.90;95.30;;;;;;6255369;22;20023;-90
2022/08/28 18:45:19;;;;;;;3.30;1.02;;;17.90;95.30;;;;;;6255733;22;20057;-87
2022/08/28 18:48:10;;;;;;;3.25;1.08;;;17.80;95.20;;;;;;6229521;22;20015;-87
2022/08/28 18:50:38;;;;;;;2.58;1.00;;;17.80;95.20;;;;;;6255526;22;20019;-88
2022/08/28 18:53:04;;;;;;;3.13;1.00;;;17.70;95.20;;;;;;6229229;22;20123;-89
2022/08/28 18:55:31;;;;;;;4.45;1.60;;;17.70;95.00;;;;;;6254925;22;20019;-89
2022/08/28 18:57:58;;;;;;;3.72;1.33;;;17.70;95.00;;;;;;6280320;22;20038;-90
2022/08/28 19:00:44;;;;;;;3.50;1.20;;;17.70;95.00;;;;;;6255165;22;20483;-90
2022/08/28 19:03:10;;;;;;;3.88;1.10;;;17.60;94.80;;;;;;6255225;22;20345;-90
2022/08/28 19:05:47;;;;;;;3.40;1.20;;;17.60;94.80;;;;;;6255492;22;20026;-90
2022/08/28 19:08:16;;;;;;;4.13;1.20;;;17.60;94.70;;;;;;6230612;22;20432;-90